createdAt,value
2022-12-01T00:00:01.556Z,8.57
2022-12-01T00:04:56.339Z,7.63
2022-12-01T00:10:06.609Z,8.80
2022-12-01T00:15:00.805Z,8.23
2022-12-01T00:19:52.345Z,8.30
2022-12-01T00:24:43.919Z,8.23
2022-12-01T00:29:35.493Z,7.67
2022-12-01T00:34:28.060Z,8.23
2022-12-01T00:39:20.107Z,8.10
2022-12-01T00:44:11.637Z,8.37
2022-12-01T00:49:04.174Z,8.40
2022-12-01T00:53:55.737Z,8.13
2022-12-01T00:58:47.272Z,7.80
2022-12-01T01:03:38.850Z,8.03
2022-12-01T01:08:30.394Z,8.60
2022-12-01T01:13:21.935Z,8.83
2022-12-01T01:18:13.534Z,8.60
2022-12-01T01:23:05.242Z,8.50
2022-12-01T01:27:57.069Z,8.87
2022-12-01T01:32:48.722Z,9.23
2022-12-01T01:37:40.252Z,10.00
2022-12-01T01:42:31.795Z,9.50
2022-12-01T01:47:40.655Z,10.23
2022-12-01T01:53:01.347Z,11.60
2022-12-01T01:57:53.027Z,11.70
2022-12-01T02:02:47.637Z,12.50
2022-12-01T02:07:41.191Z,11.33
2022-12-01T02:12:35.661Z,12.27
2022-12-01T02:17:30.136Z,13.60
2022-12-01T02:22:42.897Z,14.13
2022-12-01T02:27:57.803Z,14.57
2022-12-01T02:33:09.548Z,15.30
2022-12-01T02:38:12.024Z,14.20
2022-12-01T02:43:19.826Z,14.80
2022-12-01T02:48:18.757Z,14.53
2022-12-01T02:53:13.504Z,14.57
2022-12-01T02:58:14.004Z,15.07
2022-12-01T03:03:15.034Z,15.07
2022-12-01T03:08:19.690Z,14.70
2022-12-01T03:13:26.420Z,13.27
2022-12-01T03:18:32.013Z,14.53
2022-12-01T03:23:27.726Z,14.43
2022-12-01T03:28:23.494Z,14.40
2022-12-01T03:33:27.118Z,14.97
2022-12-01T03:38:23.377Z,15.13
2022-12-01T03:43:21.304Z,15.17
2022-12-01T03:48:13.175Z,17.00
2022-12-01T03:53:11.903Z,16.20
2022-12-01T03:58:07.337Z,16.37
2022-12-01T04:03:03.316Z,17.57
2022-12-01T04:07:55.383Z,17.27
2022-12-01T04:12:46.951Z,18.93
2022-12-01T04:17:46.210Z,18.80
2022-12-01T04:22:37.832Z,19.63
2022-12-01T04:27:29.384Z,18.97
2022-12-01T04:32:21.013Z,19.57
2022-12-01T04:37:12.891Z,18.87
2022-12-01T04:42:04.855Z,20.90
2022-12-01T04:46:56.494Z,19.30
2022-12-01T04:51:48.898Z,20.53
2022-12-01T04:56:40.993Z,19.90
2022-12-01T05:01:32.760Z,20.70
2022-12-01T05:06:27.263Z,19.40
2022-12-01T05:11:19.326Z,20.53
2022-12-01T05:16:14.445Z,20.57
2022-12-01T05:21:08.012Z,21.20
2022-12-01T05:25:59.926Z,20.37
2022-12-01T05:30:51.524Z,19.97
2022-12-01T05:35:43.480Z,20.20
2022-12-01T05:40:36.017Z,19.67
2022-12-01T05:45:28.020Z,19.90
2022-12-01T05:50:19.560Z,19.20
2022-12-01T05:55:11.112Z,19.37
2022-12-01T06:00:05.281Z,20.73
2022-12-01T06:05:02.876Z,19.47
2022-12-01T06:09:54.444Z,19.53
2022-12-01T06:14:46.265Z,19.03
2022-12-01T06:19:38.338Z,17.90
2022-12-01T06:24:29.914Z,19.87
2022-12-01T06:29:21.574Z,19.50
2022-12-01T06:34:13.442Z,19.53
2022-12-01T06:39:10.090Z,19.27
2022-12-01T06:44:01.953Z,19.97
2022-12-01T06:48:53.566Z,18.60
2022-12-01T06:53:45.089Z,19.00
2022-12-01T06:58:36.654Z,17.17
2022-12-01T07:03:28.561Z,17.57
2022-12-01T07:08:20.082Z,17.63
2022-12-01T07:13:11.598Z,17.33
2022-12-01T07:18:03.252Z,17.43
2022-12-01T07:22:54.786Z,16.10
2022-12-01T07:27:46.446Z,16.90
2022-12-01T07:32:38.183Z,16.00
2022-12-01T07:37:29.768Z,16.03
2022-12-01T07:42:21.326Z,15.93
2022-12-01T07:47:12.820Z,15.37
2022-12-01T07:52:04.589Z,14.50
2022-12-01T07:56:56.204Z,14.07
2022-12-01T08:01:47.833Z,14.27
2022-12-01T08:06:39.402Z,15.47
2022-12-01T08:11:30.951Z,15.43
2022-12-01T08:16:24.233Z,15.10
2022-12-01T08:21:18.591Z,14.67
2022-12-01T08:26:18.585Z,17.80
2022-12-01T08:31:14.515Z,15.83
2022-12-01T08:36:07.209Z,15.50
2022-12-01T08:41:07.253Z,16.83
2022-12-01T08:46:02.434Z,16.60
2022-12-01T08:51:01.628Z,15.20
2022-12-01T08:55:53.145Z,16.27
2022-12-01T09:00:45.290Z,16.43
2022-12-01T09:05:36.872Z,14.00
2022-12-01T09:10:28.437Z,15.53
2022-12-01T09:15:19.942Z,14.00
2022-12-01T09:20:12.053Z,15.10
2022-12-01T09:25:04.014Z,13.97
2022-12-01T09:29:55.650Z,14.20
2022-12-01T09:39:39.294Z,13.33
2022-12-01T09:44:45.349Z,13.37
2022-12-01T09:50:15.957Z,14.83
2022-12-01T09:55:19.618Z,13.67
2022-12-01T10:00:15.862Z,12.43
2022-12-01T10:05:14.865Z,13.03
2022-12-01T10:10:18.174Z,12.33
2022-12-01T10:15:12.739Z,12.23
2022-12-01T10:20:25.440Z,12.17
2022-12-01T10:25:35.806Z,12.63
2022-12-01T10:30:27.717Z,12.27
2022-12-01T10:35:23.298Z,11.10
2022-12-01T10:40:16.371Z,11.13
2022-12-01T10:45:16.960Z,12.50
2022-12-01T10:50:09.348Z,11.33
2022-12-01T10:55:02.560Z,12.37
2022-12-01T11:00:50.878Z,12.50
2022-12-01T11:05:38.932Z,9.13
2022-12-01T11:10:32.792Z,8.53
2022-12-01T11:15:27.554Z,9.13
2022-12-01T11:20:38.820Z,8.60
2022-12-01T11:25:30.518Z,8.43
2022-12-01T11:30:27.537Z,10.23
2022-12-01T11:35:22.578Z,12.10
2022-12-01T11:40:38.406Z,11.50
2022-12-01T11:45:33.492Z,11.23
2022-12-01T11:50:27.881Z,11.40
2022-12-01T11:55:25.620Z,10.20
2022-12-01T12:00:29.714Z,8.80
2022-12-01T12:05:38.364Z,9.30
2022-12-01T12:10:56.037Z,10.63
2022-12-01T12:15:56.269Z,12.70
2022-12-01T12:21:12.476Z,12.70
2022-12-01T12:26:14.489Z,13.40
2022-12-01T12:31:49.218Z,12.17
2022-12-01T12:37:14.108Z,13.77
2022-12-01T12:42:34.809Z,14.77
2022-12-01T12:48:15.620Z,16.60
2022-12-01T12:53:22.856Z,17.10
2022-12-01T12:58:29.155Z,15.80
2022-12-01T13:03:23.469Z,15.93
2022-12-01T13:08:23.313Z,15.67
2022-12-01T13:13:25.860Z,17.77
2022-12-01T13:18:32.481Z,19.20
2022-12-01T13:23:26.041Z,18.60
2022-12-01T13:28:22.652Z,17.43
2022-12-01T13:33:16.604Z,16.80
2022-12-01T13:38:30.210Z,16.50
2022-12-01T13:43:23.004Z,17.33
2022-12-01T13:48:46.654Z,17.93
2022-12-01T13:53:39.040Z,18.37
2022-12-01T13:58:33.531Z,18.07
2022-12-01T14:03:37.237Z,16.60
2022-12-01T14:08:31.362Z,17.80
2022-12-01T14:13:24.179Z,19.77
2022-12-01T14:18:18.451Z,17.20
2022-12-01T14:23:17.265Z,17.30
2022-12-01T14:28:16.977Z,18.13
2022-12-01T14:33:39.483Z,17.63
2022-12-01T14:38:32.649Z,18.47
2022-12-01T14:43:45.580Z,19.00
2022-12-01T14:48:45.391Z,18.30
2022-12-01T14:53:44.396Z,19.57
2022-12-01T14:58:35.999Z,20.17
2022-12-01T15:03:33.069Z,20.27
2022-12-01T15:09:04.194Z,20.97
2022-12-01T15:13:54.535Z,19.80
2022-12-01T15:18:46.296Z,20.30
2022-12-01T15:23:52.844Z,19.73
2022-12-01T15:28:44.465Z,20.77
2022-12-01T15:33:38.971Z,19.97
2022-12-01T15:38:34.112Z,18.47
2022-12-01T15:43:35.101Z,16.13
2022-12-01T15:48:36.954Z,15.30
2022-12-01T15:53:33.418Z,15.13
2022-12-01T15:58:30.227Z,15.97
2022-12-01T16:03:21.944Z,16.87
2022-12-01T16:08:15.205Z,16.93
2022-12-01T16:13:41.745Z,17.57
2022-12-01T16:18:34.095Z,16.57
2022-12-01T16:23:26.357Z,18.13
2022-12-01T16:28:35.506Z,18.00
2022-12-01T16:33:29.028Z,18.83
2022-12-01T16:38:22.565Z,20.23
2022-12-01T16:43:15.841Z,19.53
2022-12-01T16:48:09.441Z,18.90
2022-12-01T16:53:01.266Z,20.47
2022-12-01T16:57:52.849Z,19.70
2022-12-01T17:02:44.503Z,21.07
2022-12-01T17:07:36.117Z,21.13
2022-12-01T17:12:27.727Z,21.23
2022-12-01T17:17:19.412Z,21.23
2022-12-01T17:22:10.977Z,21.57
2022-12-01T17:27:02.539Z,22.37
2022-12-01T17:31:54.276Z,23.77
2022-12-01T17:36:45.797Z,24.27
2022-12-01T17:41:37.331Z,24.43
2022-12-01T17:46:30.126Z,24.37
2022-12-01T17:51:22.008Z,25.43
2022-12-01T17:56:15.562Z,24.53
2022-12-01T18:01:15.039Z,26.23
2022-12-01T18:06:06.903Z,24.20
2022-12-01T18:11:03.212Z,23.77
2022-12-01T18:15:54.971Z,25.67
2022-12-01T18:20:46.648Z,23.23
2022-12-01T18:25:39.991Z,25.97
2022-12-01T18:30:33.802Z,27.30
2022-12-01T18:35:31.607Z,29.90
2022-12-01T18:40:24.066Z,28.13
2022-12-01T18:45:20.873Z,28.80
2022-12-01T18:50:12.925Z,29.00
2022-12-01T18:55:04.774Z,25.33
2022-12-01T18:59:56.493Z,24.77
2022-12-01T19:04:50.078Z,24.13
2022-12-01T19:09:42.424Z,22.80
2022-12-01T19:14:35.203Z,22.17
2022-12-01T19:19:26.829Z,21.00
2022-12-01T19:24:18.482Z,20.80
2022-12-01T19:29:10.193Z,22.07
2022-12-01T19:34:03.840Z,22.87
2022-12-01T19:39:00.193Z,23.40
2022-12-01T19:43:53.526Z,21.47
2022-12-01T19:48:46.052Z,17.97
2022-12-01T19:53:37.559Z,16.00
2022-12-01T19:58:29.415Z,15.10
2022-12-01T20:03:20.998Z,15.67
2022-12-01T20:08:13.834Z,15.27
2022-12-01T20:13:05.443Z,13.93
2022-12-01T20:17:59.313Z,13.33
2022-12-01T20:22:50.909Z,14.40
2022-12-01T20:27:42.505Z,14.03
2022-12-01T20:32:34.222Z,14.20
2022-12-01T20:37:25.837Z,14.33
2022-12-01T20:42:19.334Z,13.77
2022-12-01T20:47:10.892Z,14.13
2022-12-01T20:52:02.545Z,12.83
2022-12-01T20:56:54.221Z,13.73
2022-12-01T21:01:45.794Z,13.53
2022-12-01T21:06:37.353Z,14.37
2022-12-01T21:11:52.011Z,14.10
2022-12-01T21:16:48.235Z,15.27
2022-12-01T21:21:41.321Z,13.87
2022-12-01T21:26:33.128Z,13.67
2022-12-01T21:31:26.238Z,14.77
2022-12-01T21:36:22.515Z,14.97
2022-12-01T21:41:28.653Z,14.83
2022-12-01T21:46:20.264Z,15.10
2022-12-01T21:51:20.702Z,15.13
2022-12-01T21:56:19.867Z,14.60
2022-12-01T22:01:37.861Z,15.67
2022-12-01T22:06:38.832Z,15.90
2022-12-01T22:11:31.081Z,17.23
2022-12-01T22:16:33.872Z,16.50
2022-12-01T22:21:31.229Z,15.90
2022-12-01T22:26:22.827Z,16.13
2022-12-01T22:31:17.667Z,16.37
2022-12-01T22:36:22.855Z,16.17
2022-12-01T22:41:16.711Z,18.10
2022-12-01T22:46:35.848Z,16.63
2022-12-01T22:51:38.405Z,17.80
2022-12-01T22:57:02.507Z,16.77
2022-12-01T23:01:56.404Z,17.23
2022-12-01T23:06:55.529Z,16.60
2022-12-01T23:11:55.039Z,17.23
2022-12-01T23:16:46.584Z,17.60
2022-12-01T23:21:38.353Z,17.90
2022-12-01T23:26:30.092Z,17.43
2022-12-01T23:31:21.743Z,16.43
2022-12-01T23:36:21.744Z,16.57
2022-12-01T23:41:30.817Z,16.27
2022-12-01T23:46:24.913Z,16.20
2022-12-01T23:51:23.053Z,15.70
2022-12-01T23:56:20.156Z,15.53
